Данни от 08.05.2026 г. 13:55:57

Температура вътрешна: 22.3 °C
Температура външна: 26.6 °C
Атмосферно налягане: 996.6 hPa
Атмосферно налягане на морско равнище: 1014.4 hPa
Влажност: 60.0 %



История от последните 24 часа

Дата и часTin [°C]P [hPa]Psl [hPa]H [%]Tout [°C]
   08.05.2026 г. 13:30:57      22.3      996.8      1014.6      60.4      26.0   
   08.05.2026 г. 13:00:58      22.3      997.2      1015.0      60.5      25.4   
   08.05.2026 г. 12:30:57      22.3      997.6      1015.4      60.5      24.8   
   08.05.2026 г. 12:00:58      22.3      997.6      1015.5      60.5      24.3   
   08.05.2026 г. 11:30:57      22.3      997.6      1015.4      60.3      23.8   
   08.05.2026 г. 11:00:58      22.3      997.7      1015.5      60.2      23.0   
   08.05.2026 г. 10:30:58      22.2      998.0      1015.8      60.8      22.4   
   08.05.2026 г. 10:00:57      22.2      998.3      1016.1      60.4      21.8   
   08.05.2026 г. 09:30:58      22.2      998.4      1016.2      60.9      20.8   
   08.05.2026 г. 09:00:57      22.2      998.6      1016.5      61.2      19.6   
   08.05.2026 г. 08:30:58      22.2      998.6      1016.5      61.0      18.6   
   08.05.2026 г. 08:00:57      22.2      998.7      1016.5      61.6      17.8   
   08.05.2026 г. 07:30:58      22.2      998.6      1016.4      61.8      17.1   
   08.05.2026 г. 07:00:57      22.2      998.4      1016.3      62.4      16.6   
   08.05.2026 г. 06:30:58      22.1      997.8      1015.7      62.5      16.1   
   08.05.2026 г. 06:00:57      22.3      997.6      1015.4      62.1      15.9   
   08.05.2026 г. 05:30:58      22.3      997.5      1015.3      61.5      16.0   
   08.05.2026 г. 05:00:57      22.3      997.6      1015.5      62.4      16.1   
   08.05.2026 г. 04:30:58      22.3      997.8      1015.6      61.3      16.0   
   08.05.2026 г. 04:00:57      22.3      997.9      1015.7      62.1      15.8   
   08.05.2026 г. 03:30:58      22.3      997.8      1015.7      62.1      16.3   
   08.05.2026 г. 03:00:57      22.3      998.0      1015.8      61.8      17.1   
   08.05.2026 г. 02:30:58      22.3      998.0      1015.8      61.8      18.5   
   08.05.2026 г. 02:00:57      22.3      998.0      1015.8      61.4      18.3   
   08.05.2026 г. 01:30:58      22.3      998.0      1015.8      61.7      18.3   
   08.05.2026 г. 01:00:57      22.3      998.0      1015.8      61.6      18.1   
   08.05.2026 г. 00:30:58      22.3      998.1      1015.9      61.8      18.0   
   08.05.2026 г. 00:00:57      22.3      997.8      1015.7      61.8      18.3   
   07.05.2026 г. 23:30:58      22.2      997.9      1015.8      61.6      18.8   
   07.05.2026 г. 23:00:57      22.2      998.1      1016.0      61.7      19.6   
   07.05.2026 г. 22:30:58      22.1      998.2      1016.0      61.5      20.1   
   07.05.2026 г. 22:00:57      22.1      998.1      1015.9      61.1      20.5   
   07.05.2026 г. 21:30:58      22.0      997.9      1015.7      61.2      20.5   
   07.05.2026 г. 21:00:57      22.0      997.6      1015.4      61.2      20.8   
   07.05.2026 г. 20:30:58      21.9      997.3      1015.1      60.8      22.1   
   07.05.2026 г. 20:00:57      21.7      997.0      1014.8      61.1      22.4   
   07.05.2026 г. 19:30:58      21.7      997.0      1014.8      60.8      22.6   
   07.05.2026 г. 19:00:57      21.9      996.6      1014.4      60.0      24.3   
   07.05.2026 г. 18:30:58      21.7      996.5      1014.3      59.7      23.8   
   07.05.2026 г. 18:00:58      21.6      996.9      1014.7      59.2      23.1   
   07.05.2026 г. 17:30:58      21.6      996.4      1014.2      57.4      28.0   
   07.05.2026 г. 17:00:58      21.5      996.1      1013.9      56.8      30.8   
   07.05.2026 г. 16:30:58      21.6      996.2      1014.0      56.5      31.0   
   07.05.2026 г. 16:00:58      21.6      996.3      1014.1      56.6      30.7   
   07.05.2026 г. 15:30:58      21.5      996.5      1014.2      57.0      29.5   
   07.05.2026 г. 15:00:58      21.5      996.8      1014.6      57.2      28.3   
   07.05.2026 г. 14:30:58      21.4      996.9      1014.6      59.3      27.1   
   07.05.2026 г. 14:00:58      21.3      996.9      1014.7      59.7      26.0   

BaroSL graphic

TEMPE graphic